Date,TemperatureHighF,TemperatureAvgF,TemperatureLowF,DewpointHighF,DewpointAvgF,DewpointLowF,HumidityHigh,HumidityAvg,HumidityLow,PressureMaxIn,PressureMinIn,WindSpeedMaxMPH,WindSpeedAvgMPH,GustSpeedMaxMPH,PrecipitationSumIn
2013-1-1,68.7,61.8,57.5,60.1,55.7,51.5,89,81,72,29.79,29.68,12,6,0,0.00
2013-1-2,69.6,62.7,58.9,60.0,55.3,48.5,91,77,63,29.77,29.66,14,7,0,0.00
2013-1-3,66.8,61.9,59.8,59.7,54.6,44.4,92,78,52,29.81,29.70,12,6,0,0.00
2013-1-4,70.1,61.6,57.0,60.3,56.2,53.2,93,83,66,29.85,29.72,8,5,0,0.09
2013-1-5,67.2,61.4,56.8,58.3,54.4,49.2,85,78,67,29.84,29.71,15,8,0,0.00
2013-1-6,68.0,62.8,57.1,59.0,54.0,45.4,84,73,54,29.78,29.65,19,8,0,0.00
2013-1-7,67.1,66.5,64.8,55.9,55.2,54.0,68,67,65,29.77,29.72,11,7,33,0.00
2013-1-8,68.4,63.0,58.9,58.2,51.7,47.2,81,67,58,29.72,29.61,23,10,25,0.00
2013-1-9,69.4,67.4,65.3,54.7,53.7,52.7,66,62,58,29.78,29.75,9,4,24,0.00
2013-1-10,67.4,62.3,59.5,59.2,56.1,54.1,87,80,72,29.78,29.67,19,7,33,0.00
2013-1-11,69.2,64.0,58.0,59.0,56.4,52.7,91,77,63,29.77,29.63,16,8,0,0.00
2013-1-12,69.7,62.2,58.1,59.7,55.5,51.3,92,79,67,29.76,29.67,22,7,0,0.00
2013-1-13,70.4,61.7,57.3,57.8,54.7,51.8,92,79,56,29.78,29.69,13,4,0,0.00
2013-1-14,70.0,61.7,57.3,59.4,55.6,52.2,90,81,66,29.80,29.71,14,4,0,0.00
2013-1-15,65.2,65.2,65.2,57.4,57.4,57.4,76,76,76,29.68,29.68,5,5,5,0.00
2013-1-16,70.3,63.5,57.0,59.5,52.6,41.8,88,68,50,29.76,29.66,12,4,16,0.00
2013-1-17,62.7,61.3,59.2,57.5,56.7,55.0,87,85,82,29.76,29.73,7,5,14,0.00
2013-1-21,68.0,65.0,61.4,57.0,55.0,51.5,81,70,63,29.82,29.70,15,8,30,0.00
2013-1-23,65.3,64.0,62.7,58.5,57.5,56.8,82,79,78,29.89,29.87,9,7,24,0.00
2013-1-24,70.6,66.7,62.8,58.2,56.5,53.3,81,70,63,29.91,29.77,12,7,24,0.00
2013-1-25,62.2,62.0,61.8,56.3,56.1,55.8,82,81,80,29.86,29.85,9,7,12,0.00
2013-1-29,67.5,63.9,61.9,58.7,58.1,57.4,86,82,73,29.80,29.72,13,11,24,0.00
2013-1-30,69.7,66.7,63.4,60.3,58.4,56.4,78,75,72,29.80,29.78,6,5,10,0.00
2013-1-31,60.1,60.1,60.1,55.9,55.9,55.5,86,86,86,29.70,29.70,8,5,9,0.00
2013-2-5,72.0,68.3,63.5,58.6,56.5,53.9,82,66,57,29.80,29.69,12,6,20,0.00
2013-2-6,68.3,67.8,67.2,53.5,53.1,52.7,61,59,58,29.80,29.79,11,9,16,0.00
2013-2-11,69.8,67.2,64.5,49.7,45.1,38.3,50,45,38,29.86,29.81,9,6,16,0.00
2013-2-12,69.9,67.9,66.0,57.1,54.7,52.4,73,63,58,29.82,29.76,8,5,18,0.00
2013-2-13,71.4,68.0,63.0,61.3,58.1,55.9,85,71,63,29.80,29.67,9,4,18,0.00
2013-2-14,66.9,64.7,60.7,59.6,58.9,57.9,91,82,76,29.71,29.69,6,2,10,0.00
2013-2-18,62.8,62.2,61.3,56.3,55.9,55.2,81,80,78,29.69,29.68,6,4,13,0.00
2013-2-19,66.6,64.2,62.3,55.2,52.6,50.2,69,66,61,29.80,29.77,12,8,20,0.00
2013-2-20,70.7,67.0,61.5,58.0,57.3,56.3,87,71,62,29.69,29.62,14,9,23,0.00
2013-2-22,72.7,70.2,66.5,60.2,58.5,55.6,77,67,60,29.80,29.67,12,7,21,0.00
2013-2-25,72.3,67.6,62.8,63.6,61.9,60.4,93,82,72,29.68,29.58,8,3,16,0.04
2013-2-26,74.7,70.8,64.6,64.4,62.4,60.3,86,75,69,29.73,29.62,9,4,13,0.01
2013-2-28,63.5,63.5,63.4,58.2,58.2,58.1,83,83,83,29.65,29.65,4,4,4,0.00
2013-3-1,62.2,61.3,60.6,58.9,58.3,57.9,92,90,88,29.66,29.63,6,3,21,0.05
2013-3-5,70.9,67.0,62.1,62.6,60.4,57.7,90,79,72,29.84,29.72,10,5,29,0.00
2013-3-6,69.4,67.4,64.7,61.8,60.7,59.7,87,79,75,29.84,29.75,13,10,22,0.00
2013-3-7,66.6,61.7,59.8,59.6,58.1,56.8,93,88,76,29.81,29.73,11,6,43,0.04
2013-3-8,68.9,63.4,60.4,61.5,59.1,56.9,91,86,74,29.82,29.67,15,6,43,0.01
2013-3-11,74.5,70.9,66.2,62.8,61.0,57.9,83,71,65,29.75,29.62,11,5,15,0.00
2013-3-14,62.9,59.9,58.1,56.0,54.4,53.0,85,82,78,29.74,29.72,10,7,31,0.00
2013-3-15,65.0,63.3,61.5,56.1,55.5,54.7,79,76,73,29.84,29.80,10,8,16,0.00
2013-3-18,75.4,73.6,71.0,61.3,58.9,56.6,67,60,54,29.80,29.72,9,6,24,0.00
2013-3-19,75.9,73.7,71.2,62.3,60.7,57.3,68,64,60,29.75,29.69,10,6,17,0.00
2013-3-20,76.3,72.6,67.9,59.9,56.4,53.4,63,57,49,29.75,29.67,9,5,16,0.00
2013-4-1,67.1,66.6,66.0,61.4,61.3,61.0,85,83,82,29.68,29.67,7,5,16,0.00
2013-4-2,72.7,68.1,65.2,61.5,60.6,59.7,83,77,67,29.77,29.70,13,7,19,0.00
2013-4-3,68.3,65.3,62.7,62.2,60.9,59.9,91,86,79,29.69,29.66,6,2,10,0.00
2013-4-17,73.8,70.8,66.5,61.6,60.6,59.7,81,70,64,29.72,29.64,11,6,22,0.00
2013-4-18,74.0,71.8,70.9,63.2,61.9,61.1,73,71,67,29.70,29.69,8,6,15,0.00
2013-4-19,71.7,68.5,63.7,62.8,61.7,59.7,89,79,72,29.77,29.70,7,3,15,0.00
2013-4-22,72.1,67.6,61.5,62.6,60.2,57.8,89,77,66,29.84,29.69,9,4,16,0.00
2013-4-23,75.1,72.5,67.5,60.5,58.0,54.6,76,61,53,29.80,29.67,10,5,17,0.00
2013-4-24,73.9,71.5,68.7,59.7,57.5,53.5,72,61,55,29.78,29.66,12,8,20,0.00
2013-4-25,70.8,69.2,67.1,58.5,57.8,57.1,74,67,62,29.79,29.77,13,11,28,0.00
2013-4-29,75.5,72.8,69.8,59.8,57.4,55.3,65,58,55,29.75,29.70,10,7,20,0.00
2013-4-30,70.6,68.5,64.6,63.7,62.7,61.8,92,82,76,29.68,29.63,8,3,20,0.55
2013-5-2,74.1,70.4,64.9,64.6,62.9,60.5,90,78,66,29.78,29.69,10,4,17,0.10
2013-5-3,74.3,67.9,63.7,64.2,62.0,60.2,92,82,65,29.81,29.66,9,4,12,0.01
2013-5-6,72.7,70.0,66.9,61.0,59.4,58.3,76,69,62,29.85,29.83,10,5,13,0.00
2013-5-7,73.4,70.9,65.1,51.6,46.8,40.5,60,43,31,29.85,29.76,14,7,21,0.00
2013-5-8,75.4,71.7,67.4,58.1,46.8,35.3,71,43,29,29.87,29.74,11,5,20,0.00
2013-5-9,74.0,71.9,70.2,59.3,58.3,57.2,65,62,60,29.83,29.80,5,3,15,0.00
2013-5-10,72.4,70.2,68.4,62.6,61.7,60.5,78,75,71,29.81,29.79,6,4,11,0.00
2013-5-13,63.7,62.3,61.1,58.6,58.2,57.7,90,86,82,29.73,29.72,8,4,19,0.02
2013-5-14,66.4,64.5,60.9,59.4,58.3,56.2,92,81,76,29.82,29.75,10,5,26,0.02
2013-5-15,71.2,63.6,57.5,59.2,53.4,48.0,91,70,53,29.83,29.70,16,6,32,0.00
2013-5-16,67.5,61.6,58.4,54.1,47.4,42.5,67,60,54,29.79,29.74,11,4,32,0.00
2013-5-17,70.5,68.8,62.1,60.1,58.9,56.9,88,71,66,29.79,29.75,9,6,17,0.00
2013-5-20,74.0,69.1,65.7,62.6,60.8,58.4,82,75,66,29.77,29.66,13,7,25,0.00
2013-5-21,63.3,62.5,61.8,61.5,60.7,59.8,94,94,93,29.68,29.65,1,0,2,1.65
2013-5-22,67.8,64.0,60.6,63.7,61.5,58.9,95,92,82,29.76,29.68,6,2,10,1.12
2013-5-23,69.3,68.1,66.7,62.9,62.0,60.9,84,81,78,29.78,29.77,6,3,7,0.00
2013-5-24,66.6,64.2,62.7,63.3,61.9,60.6,94,92,88,29.71,29.69,5,1,5,0.13
2013-5-27,75.3,69.1,61.0,63.4,60.8,55.6,89,75,63,29.78,29.66,10,4,15,0.16
2013-5-28,71.0,66.4,61.5,63.1,61.0,58.9,94,83,75,29.75,29.66,8,4,18,0.13
2013-5-29,71.1,70.8,70.4,61.7,61.0,59.9,74,71,69,29.75,29.74,4,4,6,0.01
2013-5-30,61.8,61.0,59.9,60.1,59.5,58.2,95,95,94,29.74,29.71,5,1,14,0.90
2013-5-31,68.8,68.1,66.8,62.0,61.0,60.1,82,78,74,29.78,29.77,4,2,8,0.01
2013-6-3,72.6,70.3,64.9,64.9,62.9,60.5,91,78,68,29.72,29.68,7,4,11,0.25
2013-6-4,68.9,64.1,63.0,64.9,61.8,60.2,94,92,85,29.69,29.64,3,0,7,1.07
2013-6-6,62.1,61.8,61.6,60.4,60.2,60.0,95,94,94,29.69,29.67,0,0,4,2.20
2013-6-7,70.2,69.5,68.9,59.6,59.1,58.7,72,70,68,29.74,29.73,8,5,11,0.00
2013-6-12,70.7,68.8,64.4,62.7,61.4,59.1,83,78,74,29.78,29.76,8,6,12,0.01
2013-6-14,72.6,69.3,67.2,63.8,62.4,60.9,86,79,72,29.73,29.65,10,3,16,0.03
2013-6-19,69.7,66.8,65.1,65.0,62.5,61.2,91,86,80,29.66,29.63,5,1,11,0.03
2013-6-20,70.1,67.4,64.3,63.2,61.5,60.2,87,82,75,29.74,29.64,8,3,13,0.01
2013-6-21,72.0,69.0,65.4,61.8,60.1,58.1,84,73,67,29.77,29.70,7,4,16,0.00
2013-6-25,69.7,68.5,67.6,63.7,61.7,60.0,85,79,74,29.79,29.75,6,3,10,0.00
2013-6-26,71.2,71.2,71.2,62.9,62.9,62.9,75,75,75,29.75,29.75,4,4,5,0.00
2013-6-27,66.7,65.4,63.3,62.4,61.4,60.3,91,87,85,29.73,29.68,6,2,17,0.01
2013-6-28,67.2,64.5,60.9,61.6,59.8,57.6,89,85,81,29.78,29.70,4,1,14,0.00
2013-7-3,71.1,68.7,65.6,63.8,61.8,59.7,85,79,73,29.83,29.71,5,1,10,0.00
2013-7-4,74.1,68.0,62.0,62.9,60.6,58.0,90,78,64,29.77,29.71,9,4,18,0.02
2013-7-5,72.3,70.0,68.3,60.9,59.9,58.9,74,70,67,29.71,29.67,9,6,15,0.00
2013-7-9,70.9,68.7,67.3,63.4,61.3,59.4,84,77,72,29.81,29.72,9,5,18,0.00
2013-7-12,67.9,65.9,63.4,63.0,61.5,60.0,92,86,77,29.80,29.72,5,2,7,0.05
2013-7-15,69.2,67.9,65.3,59.6,58.4,57.2,75,72,69,29.72,29.71,8,4,19,0.00
2013-7-26,65.1,64.8,64.5,58.8,58.4,58.0,81,80,78,29.80,29.77,13,8,25,0.00
2013-7-31,64.4,64.4,64.4,59.5,59.5,59.5,84,84,84,29.74,29.74,2,2,2,0.00
2013-8-1,70.3,65.4,62.3,60.9,59.3,58.1,87,81,72,29.81,29.72,8,4,14,0.00
2013-8-5,67.7,67.7,67.7,59.9,59.9,59.9,76,76,76,29.78,29.78,1,1,13,0.00
2013-8-6,72.1,68.4,64.0,61.0,58.0,55.8,79,70,59,29.77,29.71,9,5,27,0.00
2013-8-7,70.4,68.0,66.0,59.5,58.5,56.9,78,72,64,29.72,29.69,12,8,22,0.00
2013-8-9,69.7,67.3,64.9,61.2,60.2,59.0,85,78,71,29.75,29.69,7,3,13,0.01
2013-8-12,71.1,65.0,60.8,62.4,60.6,58.9,95,86,68,29.73,29.67,8,2,11,0.89
2013-8-13,74.7,66.4,62.2,63.6,61.7,58.9,95,86,64,29.77,29.64,8,1,21,0.02
2013-8-14,72.1,63.4,59.0,63.2,59.1,56.0,95,86,71,29.71,29.66,4,0,21,0.01
2013-8-15,69.9,69.9,69.9,62.4,62.4,62.4,77,77,77,29.70,29.70,2,2,2,0.00
2013-8-16,70.5,67.2,62.1,64.5,61.8,60.1,95,83,75,29.72,29.64,7,3,10,1.20
2013-8-19,72.0,66.3,62.2,62.8,59.7,57.9,88,80,66,29.75,29.65,8,4,19,0.09
2013-8-21,69.3,66.4,64.0,63.2,61.2,59.1,90,83,75,29.75,29.67,10,3,15,0.09
2013-8-22,70.1,65.8,61.0,63.9,61.1,58.4,93,85,76,29.70,29.60,5,1,13,0.28
2013-8-23,66.6,64.9,63.8,62.3,61.7,61.1,91,89,86,29.65,29.65,5,2,13,0.07
2013-8-26,72.9,68.6,64.7,63.9,62.1,59.0,90,80,65,29.82,29.69,10,4,13,0.00
2013-8-27,65.6,63.3,61.0,61.1,59.4,58.5,92,87,81,29.72,29.68,3,1,10,0.34
2013-8-30,71.0,69.1,66.7,63.5,60.9,57.5,88,75,70,29.80,29.67,10,4,14,0.00
2013-9-2,71.7,66.0,62.9,63.1,61.6,58.2,93,86,70,29.83,29.70,8,2,11,0.02
2013-9-3,72.1,68.5,62.6,64.3,61.5,57.4,88,78,70,29.81,29.67,9,3,18,0.06
2013-9-4,71.8,67.3,62.4,62.9,61.0,59.2,94,81,69,29.78,29.68,7,3,18,0.05
2013-9-5,70.9,69.0,66.7,64.2,62.5,59.6,89,80,72,29.78,29.69,10,4,14,0.01
2013-9-6,70.1,67.8,65.1,64.4,62.9,61.1,91,84,76,29.78,29.69,6,3,11,0.00
2013-9-9,72.6,70.5,67.9,62.5,60.9,59.9,78,72,67,29.78,29.75,4,2,11,0.00
2013-9-10,70.0,67.3,63.6,64.4,62.1,59.6,92,84,72,29.79,29.67,6,2,9,0.20
2013-9-11,63.3,62.9,62.4,60.6,59.7,59.1,91,89,88,29.71,29.70,1,1,5,0.01
2013-9-12,71.9,66.2,60.8,62.1,59.9,57.5,95,81,64,29.78,29.65,8,2,11,1.43
2013-9-13,73.4,69.2,61.1,66.3,62.1,58.7,93,79,67,29.70,29.58,10,3,15,0.31
2013-9-16,69.6,65.5,61.1,64.9,62.2,59.4,95,89,80,29.74,29.63,4,1,7,2.82
2013-9-17,73.2,68.2,64.4,64.4,61.9,58.0,94,81,60,29.75,29.62,7,2,9,0.17
2013-9-18,70.9,64.2,58.9,64.4,60.4,57.2,94,88,70,29.73,29.66,4,1,8,0.35
2013-9-19,69.4,63.6,58.9,64.5,60.0,56.2,95,88,78,29.79,29.70,5,1,10,0.02
2013-9-20,74.1,68.2,63.2,64.3,62.0,59.7,91,81,63,29.79,29.64,6,1,10,0.06
2013-9-23,70.6,68.5,64.8,64.0,62.5,61.2,88,81,74,29.79,29.70,8,2,9,0.00
2013-9-24,72.8,67.4,62.0,66.3,62.7,59.4,92,85,74,29.76,29.60,5,2,10,0.34
2013-9-25,74.3,64.6,60.8,62.1,59.0,54.8,92,82,57,29.75,29.56,14,3,28,0.02
2013-9-26,70.8,64.5,59.6,64.0,58.8,54.2,94,82,66,29.74,29.63,5,1,8,0.45
2013-9-27,68.1,67.5,66.9,61.4,60.1,59.1,81,77,73,29.78,29.77,2,1,12,0.00
2013-9-30,69.3,63.3,60.0,63.3,59.4,57.6,95,88,71,29.81,29.67,7,1,10,0.62
2013-10-1,69.8,62.8,57.9,62.8,59.4,55.4,95,89,75,29.78,29.66,6,1,7,0.30
2013-10-3,64.4,64.2,64.0,62.4,62.3,62.2,94,94,93,29.68,29.66,1,0,7,0.00
2013-10-4,66.0,62.4,59.1,62.9,58.6,55.4,94,88,75,29.79,29.69,4,1,8,0.24
2013-10-5,72.8,64.0,59.8,65.4,59.6,54.8,95,86,66,29.79,29.64,7,1,10,1.46
2013-10-6,70.0,62.8,59.2,63.3,59.6,56.1,95,90,76,29.82,29.69,6,1,10,1.85
2013-10-7,70.5,64.0,59.1,64.3,59.9,55.9,93,87,75,29.79,29.69,7,1,13,0.50
2013-10-8,70.0,68.2,66.7,62.9,61.9,61.4,83,80,76,29.79,29.77,8,6,15,0.01
2013-10-9,71.8,68.2,64.4,63.1,60.8,58.6,86,77,72,29.78,29.66,10,4,21,0.02
2013-10-10,68.9,66.1,62.2,61.6,60.1,58.3,89,81,76,29.69,29.65,7,3,11,0.03
2013-10-11,70.6,66.2,61.9,62.5,60.7,59.0,93,83,72,29.71,29.65,8,2,13,0.53
2013-10-14,69.3,67.4,66.1,60.8,58.8,57.6,77,74,71,29.75,29.72,4,3,12,0.00
2013-10-15,70.3,65.6,61.4,62.6,60.8,59.4,95,85,74,29.79,29.68,6,2,12,0.10
2013-10-16,67.4,66.0,64.3,61.4,60.0,56.9,84,81,77,29.81,29.76,4,2,10,0.02
2013-10-17,67.8,65.5,63.6,62.7,61.0,58.1,92,85,76,29.84,29.68,6,3,11,0.01
2013-10-18,71.5,68.9,66.7,64.7,62.3,60.3,85,80,72,29.79,29.69,8,3,14,0.00
2013-10-21,71.9,66.1,62.1,62.2,60.7,58.4,94,83,65,29.82,29.69,7,2,11,0.59
2013-10-22,69.6,67.3,62.8,61.7,60.4,58.2,93,79,71,29.76,29.65,8,3,10,0.51
2013-10-24,65.9,64.6,63.6,63.0,62.2,61.6,95,92,89,29.72,29.64,2,1,6,0.16
2013-10-28,71.2,69.3,66.8,64.5,63.0,61.7,88,81,75,29.77,29.65,8,4,12,0.00
2013-10-31,69.4,67.8,65.6,64.7,62.3,60.1,86,83,80,29.66,29.62,7,3,14,0.00
2013-11-1,71.3,66.9,59.6,64.0,61.2,57.4,93,83,68,29.77,29.64,8,3,10,1.06
2013-11-4,68.5,65.6,62.1,62.7,60.4,57.4,93,84,71,29.79,29.67,6,2,10,0.01
2013-11-6,68.3,65.7,63.9,63.6,62.5,61.6,93,89,84,29.72,29.67,6,2,8,0.09
2013-11-7,72.0,69.7,64.2,63.9,62.6,61.2,93,79,70,29.74,29.66,7,4,14,0.01
2013-11-11,68.1,65.2,62.2,62.4,60.6,58.7,91,85,79,29.77,29.64,8,4,17,0.02
2013-11-12,66.3,63.4,62.1,61.6,59.7,58.3,91,88,83,29.74,29.62,7,3,13,0.03
2013-11-13,65.3,63.7,62.7,59.0,58.5,57.8,86,83,77,29.63,29.60,8,2,29,0.00
2013-11-14,71.1,67.2,63.0,63.5,61.2,59.4,92,82,70,29.74,29.63,5,2,12,0.21
2013-11-15,66.8,66.8,66.8,61.8,61.8,61.8,84,84,84,29.74,29.74,2,2,5,0.00
2013-11-18,71.4,67.9,64.5,62.0,60.6,58.6,86,78,66,29.75,29.61,9,5,12,0.00
2013-11-25,63.3,63.0,62.6,60.3,60.1,59.9,91,90,90,29.70,29.69,1,1,12,0.00
2013-11-26,71.7,66.9,62.9,62.6,60.8,57.8,93,81,69,29.77,29.64,7,3,12,0.02
2013-11-28,64.7,60.7,58.5,58.2,56.3,54.5,93,85,70,29.78,29.63,22,8,33,1.20
2013-11-29,60.2,60.1,59.9,57.8,57.3,56.6,92,90,89,29.75,29.73,5,3,16,0.06
2013-12-2,63.9,63.0,61.9,58.3,57.8,57.3,85,83,82,29.70,29.68,1,1,16,0.00
2013-12-3,68.2,65.3,62.2,61.8,60.4,57.4,92,84,76,29.83,29.72,5,2,11,0.02
2013-12-4,67.0,66.7,66.3,59.8,59.4,59.1,79,77,76,29.75,29.72,9,6,17,0.00
2013-12-6,69.7,68.3,66.2,61.8,60.3,59.3,80,76,70,29.77,29.67,9,6,13,0.00
2013-12-9,67.8,66.0,63.5,57.9,56.0,54.3,73,70,67,29.83,29.77,14,6,22,0.00
2013-12-11,70.9,68.5,64.4,60.5,59.0,55.6,84,72,62,29.81,29.66,9,5,17,0.00
2013-12-12,63.0,62.4,61.9,59.4,59.0,58.4,90,89,86,29.70,29.67,9,5,18,0.00
2013-12-16,70.2,67.2,62.9,61.6,60.5,58.8,88,79,71,29.77,29.66,7,3,17,0.00
2013-12-17,68.0,64.4,62.0,59.9,58.8,56.9,89,82,68,29.81,29.72,11,5,25,0.00
2013-12-18,59.5,59.2,58.8,55.3,51.8,48.8,88,77,68,29.76,29.74,5,3,15,0.00
2013-12-19,66.2,63.0,59.9,58.8,57.4,55.8,88,82,75,29.80,29.68,9,5,20,0.00
2013-12-20,65.4,63.4,61.1,57.6,56.7,55.2,81,79,76,29.79,29.77,8,4,16,0.00